Time;durP1;ratioP1;P1;durP2;ratioP2;P2;SDS_P1;SDS_P2;PMS_P1;PMS_P2;Temp;Humidity;BMP_temperature;BMP_pressure;BME280_temperature;BME280_humidity;BME280_pressure;Samples;Min_cycle;Max_cycle;Signal;HPM_P1;HPM_P2
2023/10/24 05:06:35;;;;;;;;;33.75;29.00;;;;;;;;5938173;39;10000796;-68
2023/10/24 05:12:52;;;;;;;;;34.25;32.00;;;;;;;;6489757;31;8950;-68
2023/10/24 05:18:55;;;;;;;;;33.00;29.75;;;;;;;;6491366;39;9006;-69
2023/10/24 05:24:57;;;;;;;;;34.75;32.00;;;;;;;;6491351;31;8909;-68
2023/10/24 05:31:08;;;;;;;;;40.75;37.25;;;;;;;;6488985;46;8952;-68
2023/10/24 05:37:10;;;;;;;;;40.75;35.00;;;;;;;;6490338;31;8905;-69
2023/10/24 05:43:12;;;;;;;;;34.50;30.50;;;;;;;;6490648;39;9023;-68
2023/10/24 05:49:15;;;;;;;;;30.75;27.25;;;;;;;;6488768;39;9549;-68
2023/10/24 05:55:17;;;;;;;;;23.67;23.67;;;;;;;;6491188;39;8920;-68
2023/10/24 06:01:20;;;;;;;;;31.00;29.50;;;;;;;;6480715;46;8963;-69
2023/10/24 06:07:23;;;;;;;;;25.00;24.00;;;;;;;;6489597;47;9013;-68
2023/10/24 06:13:26;;;;;;;;;27.00;25.00;;;;;;;;6486485;39;9617;-68
2023/10/24 06:19:29;;;;;;;;;29.00;23.00;;;;;;;;6487430;47;8919;-69
2023/10/24 06:25:40;;;;;;;;;25.00;22.00;;;;;;;;6489071;31;8933;-67
2023/10/24 06:31:43;;;;;;;;;23.67;22.00;;;;;;;;6488110;31;8970;-70
2023/10/24 06:37:45;;;;;;;;;24.67;23.00;;;;;;;;6488801;39;8887;-69
2023/10/24 06:43:49;;;;;;;;;21.33;21.33;;;;;;;;6489514;39;8931;-70
2023/10/24 06:49:53;;;;;;;;;21.67;21.67;;;;;;;;6489509;31;9043;-69
2023/10/24 06:56:03;;;;;;;;;22.67;22.33;;;;;;;;6489563;46;9002;-68
2023/10/24 07:02:05;;;;;;;;;21.33;19.67;;;;;;;;6484965;39;8946;-69
2023/10/24 07:08:08;;;;;;;;;29.33;26.00;;;;;;;;6489405;46;8864;-69
2023/10/24 07:14:11;;;;;;;;;32.00;24.33;;;;;;;;6489124;31;8922;-68
2023/10/24 07:20:14;;;;;;;;;27.00;25.00;;;;;;;;6489848;39;9286;-68
2023/10/24 07:26:18;;;;;;;;;19.00;16.33;;;;;;;;6488507;46;8914;-70
2023/10/24 07:32:24;;;;;;;;;20.00;18.00;;;;;;;;6488539;39;9657;-69
2023/10/24 07:38:26;;;;;;;;;19.67;17.00;;;;;;;;6489890;39;8945;-71
2023/10/24 07:44:30;;;;;;;;;30.00;27.67;;;;;;;;6488941;39;8912;-71
2023/10/24 07:50:34;;;;;;;;;20.67;20.00;;;;;;;;6489184;39;9615;-70
2023/10/24 07:56:41;;;;;;;;;24.67;21.67;;;;;;;;6488893;39;8958;-67
2023/10/24 08:02:43;;;;;;;;;21.33;20.33;;;;;;;;6485397;39;8974;-69
2023/10/24 08:08:52;;;;;;;;;20.00;19.00;;;;;;;;6486987;39;8904;-70
2023/10/24 08:14:54;;;;;;;;;21.00;20.00;;;;;;;;6486881;39;8946;-70
2023/10/24 08:20:58;;;;;;;;;18.00;18.00;;;;;;;;6487216;46;8924;-69
2023/10/24 08:27:01;;;;;;;;;21.67;21.33;;;;;;;;6488335;39;8994;-67
2023/10/24 08:33:15;;;;;;;;;16.33;16.33;;;;;;;;6485591;39;8919;-70
2023/10/24 08:39:18;;;;;;;;;23.33;21.33;;;;;;;;6488300;31;9100;-68
2023/10/24 08:45:21;;;;;;;;;18.00;17.00;;;;;;;;6488216;39;8915;-69
2023/10/24 08:51:25;;;;;;;;;19.67;17.67;;;;;;;;6486798;46;8910;-70
2023/10/24 08:57:38;;;;;;;;;18.67;18.67;;;;;;;;6488794;46;8970;-70
2023/10/24 09:03:42;;;;;;;;;16.33;16.33;;;;;;;;6487725;39;9701;-68
2023/10/24 09:09:45;;;;;;;;;18.00;18.00;;;;;;;;6487900;39;8959;-68
2023/10/24 09:16:10;;;;;;;;;19.00;16.00;;;;;;;;6489356;31;8934;-70
2023/10/24 09:22:16;;;;;;;;;56.67;45.67;;;;;;;;6488059;46;8904;-69
2023/10/24 09:28:24;;;;;;;;;32.33;30.67;;;;;;;;6484638;31;8893;-70
2023/10/24 09:34:31;;;;;;;;;20.33;20.00;;;;;;;;6486959;39;8990;-70
2023/10/24 09:40:38;;;;;;;;;16.00;15.00;;;;;;;;6488865;39;9529;-68
2023/10/24 09:46:44;;;;;;;;;16.33;14.00;;;;;;;;6485898;39;8919;-70
2023/10/24 09:52:51;;;;;;;;;17.33;16.67;;;;;;;;6486375;46;9033;-70
2023/10/24 09:58:54;;;;;;;;;20.33;17.33;;;;;;;;6489602;31;9162;-71
2023/10/24 10:04:57;;;;;;;;;20.33;19.00;;;;;;;;6487669;39;9017;-70
2023/10/24 10:11:05;;;;;;;;;17.67;17.33;;;;;;;;6489339;39;8907;-69
2023/10/24 10:17:39;;;;;;;;;24.33;22.33;;;;;;;;6488764;46;8941;-71
2023/10/24 10:23:52;;;;;;;;;20.67;20.33;;;;;;;;6491708;39;8914;-70
2023/10/24 10:30:14;;;;;;;;;23.25;23.25;;;;;;;;6489329;39;9581;-69
2023/10/24 10:36:28;;;;;;;;;26.00;23.33;;;;;;;;6488795;46;8931;-69
2023/10/24 10:42:47;;;;;;;;;29.00;28.00;;;;;;;;6488386;46;9009;-71
2023/10/24 10:48:56;;;;;;;;;31.67;29.33;;;;;;;;6489228;39;8959;-69
2023/10/24 10:55:25;;;;;;;;;35.00;31.00;;;;;;;;6490003;39;9631;-70
2023/10/24 11:01:36;;;;;;;;;20.50;18.50;;;;;;;;6487746;39;8948;-69
2023/10/24 11:07:54;;;;;;;;;25.75;24.75;;;;;;;;6488648;31;9053;-71
2023/10/24 11:14:14;;;;;;;;;22.25;20.25;;;;;;;;6489732;46;8923;-66
2023/10/24 11:20:18;;;;;;;;;22.00;22.00;;;;;;;;6492541;39;8874;-70
2023/10/24 11:26:29;;;;;;;;;18.75;17.75;;;;;;;;6491208;39;8948;-69
2023/10/24 11:32:42;;;;;;;;;19.75;19.25;;;;;;;;6488187;31;9017;-69
2023/10/24 11:38:45;;;;;;;;;20.50;17.50;;;;;;;;6486473;46;8931;-69
2023/10/24 11:44:49;;;;;;;;;18.00;17.50;;;;;;;;6486833;39;8906;-70
2023/10/24 11:50:52;;;;;;;;;17.75;16.00;;;;;;;;6489201;46;8943;-69
2023/10/24 11:56:57;;;;;;;;;17.25;16.75;;;;;;;;6487595;46;9057;-70
2023/10/24 12:03:03;;;;;;;;;22.25;21.25;;;;;;;;6487314;39;9014;-69
2023/10/24 12:09:07;;;;;;;;;17.75;17.00;;;;;;;;6489478;46;9028;-67
2023/10/24 12:15:09;;;;;;;;;15.75;15.75;;;;;;;;6486780;39;9014;-68
2023/10/24 12:21:14;;;;;;;;;19.00;18.25;;;;;;;;6488522;39;8899;-67
2023/10/24 12:27:19;;;;;;;;;23.50;20.50;;;;;;;;6488241;46;8986;-66
2023/10/24 12:33:23;;;;;;;;;12.50;12.50;;;;;;;;6488914;46;8926;-66
2023/10/24 12:39:26;;;;;;;;;12.75;12.50;;;;;;;;6486955;39;8983;-65
2023/10/24 12:45:30;;;;;;;;;14.00;12.50;;;;;;;;6486007;31;8953;-64
2023/10/24 12:51:32;;;;;;;;;16.50;14.00;;;;;;;;6485802;31;8884;-66
2023/10/24 12:57:37;;;;;;;;;28.50;22.25;;;;;;;;6485397;39;8938;-66
2023/10/24 13:03:42;;;;;;;;;10.75;10.00;;;;;;;;6480369;39;9038;-65
2023/10/24 13:09:50;;;;;;;;;28.00;23.50;;;;;;;;6481402;39;9599;-68
2023/10/24 13:15:53;;;;;;;;;12.25;12.25;;;;;;;;6481944;46;8961;-67
2023/10/24 13:21:59;;;;;;;;;19.00;15.75;;;;;;;;6489090;31;8834;-66
2023/10/24 13:28:03;;;;;;;;;10.67;10.67;;;;;;;;6486639;46;8984;-65
2023/10/24 13:34:05;;;;;;;;;10.25;10.25;;;;;;;;6487775;39;9057;-67
2023/10/24 13:40:29;;;;;;;;;13.50;11.25;;;;;;;;6489730;31;9018;-66
2023/10/24 13:46:32;;;;;;;;;17.75;17.25;;;;;;;;6489688;39;9753;-67
2023/10/24 13:52:37;;;;;;;;;11.75;11.25;;;;;;;;6488120;46;9014;-67
2023/10/24 13:58:41;;;;;;;;;13.00;12.00;;;;;;;;6486212;39;8979;-65
2023/10/24 14:04:43;;;;;;;;;18.25;15.50;;;;;;;;6488810;39;8967;-64
2023/10/24 14:10:47;;;;;;;;;14.00;12.25;;;;;;;;6489360;39;8902;-64
2023/10/24 14:16:51;;;;;;;;;13.25;13.25;;;;;;;;6487681;47;8919;-66
2023/10/24 14:22:55;;;;;;;;;14.00;12.50;;;;;;;;6487530;39;9012;-65
2023/10/24 14:28:59;;;;;;;;;13.00;12.75;;;;;;;;6486989;47;8916;-66
2023/10/24 14:35:03;;;;;;;;;16.00;14.67;;;;;;;;6487001;39;8903;-67
2023/10/24 14:41:06;;;;;;;;;15.75;14.25;;;;;;;;6488437;46;10239;-69
2023/10/24 14:47:11;;;;;;;;;22.33;21.33;;;;;;;;6486847;39;8922;-66
2023/10/24 14:53:18;;;;;;;;;17.67;15.33;;;;;;;;6487793;47;8935;-68
2023/10/24 14:59:26;;;;;;;;;19.67;17.00;;;;;;;;6487836;39;9001;-68
2023/10/24 15:05:30;;;;;;;;;19.67;19.33;;;;;;;;6487130;46;8963;-66
2023/10/24 15:11:33;;;;;;;;;22.33;19.00;;;;;;;;6489223;39;8875;-68
2023/10/24 15:17:38;;;;;;;;;24.67;23.33;;;;;;;;6490705;31;8896;-67
2023/10/24 15:23:43;;;;;;;;;29.67;26.67;;;;;;;;6488818;31;8887;-66
2023/10/24 15:29:46;;;;;;;;;33.67;32.00;;;;;;;;6490019;39;8841;-66
2023/10/24 15:35:54;;;;;;;;;22.00;19.67;;;;;;;;6489879;31;8903;-66
2023/10/24 15:41:57;;;;;;;;;31.67;30.33;;;;;;;;6490423;31;8876;-67
2023/10/24 15:48:00;;;;;;;;;30.00;29.00;;;;;;;;6490112;39;8918;-66
2023/10/24 15:54:06;;;;;;;;;31.67;29.67;;;;;;;;6489130;31;8861;-67
2023/10/24 16:00:10;;;;;;;;;40.00;36.67;;;;;;;;6488833;46;8962;-66
2023/10/24 16:06:16;;;;;;;;;45.33;39.67;;;;;;;;6489050;46;8912;-66
2023/10/24 16:12:21;;;;;;;;;51.33;42.67;;;;;;;;6488638;46;8909;-66
2023/10/24 16:18:34;;;;;;;;;45.00;38.33;;;;;;;;6488144;39;9588;-66
2023/10/24 16:24:42;;;;;;;;;49.00;40.33;;;;;;;;6489060;39;9541;-65
2023/10/24 16:30:45;;;;;;;;;50.67;43.33;;;;;;;;6488282;39;8930;-65
2023/10/24 16:36:48;;;;;;;;;53.33;44.33;;;;;;;;6488120;46;8985;-67
2023/10/24 16:42:54;;;;;;;;;53.67;41.33;;;;;;;;6489672;39;8884;-66
2023/10/24 16:48:57;;;;;;;;;50.33;42.33;;;;;;;;6489529;39;8870;-66
2023/10/24 16:55:00;;;;;;;;;52.50;42.00;;;;;;;;6489763;39;8887;-66
2023/10/24 17:01:04;;;;;;;;;54.67;44.00;;;;;;;;6489509;39;8927;-67
2023/10/24 17:07:07;;;;;;;;;55.00;43.67;;;;;;;;6488335;39;8957;-66
2023/10/24 17:13:10;;;;;;;;;55.67;43.67;;;;;;;;6488650;39;8884;-67
2023/10/24 17:19:13;;;;;;;;;50.67;41.67;;;;;;;;6488706;31;8897;-67
2023/10/24 17:25:16;;;;;;;;;58.75;48.75;;;;;;;;6489057;39;8884;-65
2023/10/24 17:31:19;;;;;;;;;60.25;48.00;;;;;;;;6488535;39;9467;-65
2023/10/24 17:37:23;;;;;;;;;62.25;49.25;;;;;;;;6488517;39;8916;-66
2023/10/24 17:43:26;;;;;;;;;63.25;48.75;;;;;;;;6489183;39;8870;-65
2023/10/24 17:49:29;;;;;;;;;71.50;55.25;;;;;;;;6488520;39;8860;-65
2023/10/24 17:55:35;;;;;;;;;65.50;51.75;;;;;;;;6489589;39;8850;-66
2023/10/24 18:01:40;;;;;;;;;63.50;51.25;;;;;;;;6488804;39;9125;-66
2023/10/24 18:07:44;;;;;;;;;68.00;51.75;;;;;;;;6488967;47;8997;-65
2023/10/24 18:13:48;;;;;;;;;65.25;52.00;;;;;;;;6489205;47;8913;-68
2023/10/24 18:19:55;;;;;;;;;66.50;53.75;;;;;;;;6488339;39;8898;-64
2023/10/24 18:25:58;;;;;;;;;60.50;50.00;;;;;;;;6488107;39;8878;-65
2023/10/24 18:32:00;;;;;;;;;63.75;50.25;;;;;;;;6487386;47;8924;-65
2023/10/24 18:38:03;;;;;;;;;63.75;51.00;;;;;;;;6488615;46;8996;-65
2023/10/24 18:44:11;;;;;;;;;67.75;52.75;;;;;;;;6489823;46;8899;-64
2023/10/24 18:50:13;;;;;;;;;67.00;53.67;;;;;;;;6491178;31;8871;-65
2023/10/24 18:56:21;;;;;;;;;68.25;53.00;;;;;;;;6490536;39;9570;-66
2023/10/24 19:02:25;;;;;;;;;61.25;50.25;;;;;;;;6490343;39;8915;-68
2023/10/24 19:08:40;;;;;;;;;62.50;50.50;;;;;;;;6489870;46;8962;-65
2023/10/24 19:14:44;;;;;;;;;65.00;52.00;;;;;;;;6488678;39;8918;-65
2023/10/24 19:20:54;;;;;;;;;68.25;52.25;;;;;;;;6490746;31;8919;-64
2023/10/24 19:26:56;;;;;;;;;64.25;51.25;;;;;;;;6489640;46;8906;-65
2023/10/24 19:33:05;;;;;;;;;61.25;50.50;;;;;;;;6489309;39;9467;-65
2023/10/24 19:39:09;;;;;;;;;58.75;48.00;;;;;;;;6490547;31;8922;-65
2023/10/24 19:45:16;;;;;;;;;58.00;46.25;;;;;;;;6490519;39;8856;-67
2023/10/24 19:51:19;;;;;;;;;52.00;42.75;;;;;;;;6489250;39;9009;-65
2023/10/24 19:57:23;;;;;;;;;51.25;42.00;;;;;;;;6489819;46;9044;-64
2023/10/24 20:03:26;;;;;;;;;56.33;43.67;;;;;;;;6489536;46;8906;-63
2023/10/24 20:09:30;;;;;;;;;51.50;41.00;;;;;;;;6489532;39;8895;-66
2023/10/24 20:15:57;;;;;;;;;42.33;36.67;;;;;;;;6489160;39;9057;-65
2023/10/24 20:22:00;;;;;;;;;38.00;34.00;;;;;;;;6489739;39;9040;-64
2023/10/24 20:28:03;;;;;;;;;36.00;33.33;;;;;;;;6489882;39;8926;-65
2023/10/24 20:34:07;;;;;;;;;33.67;30.33;;;;;;;;6488910;46;8863;-64
2023/10/24 20:40:11;;;;;;;;;35.00;33.00;;;;;;;;6534683;36;8954;-65
2023/10/24 20:46:14;;;;;;;;;33.67;33.33;;;;;;;;6488659;46;8875;-65
2023/10/24 20:52:17;;;;;;;;;29.00;28.67;;;;;;;;6489775;39;9663;-64
2023/10/24 20:58:19;;;;;;;;;34.67;32.00;;;;;;;;6308813;39;10000934;-65
2023/10/24 21:04:23;;;;;;;;;32.33;32.00;;;;;;;;6489436;39;8941;-65
2023/10/24 21:10:29;;;;;;;;;34.00;31.33;;;;;;;;6488689;39;8872;-64
2023/10/24 21:16:31;;;;;;;;;28.67;27.00;;;;;;;;6489723;31;8902;-65
2023/10/24 21:22:34;;;;;;;;;34.00;32.67;;;;;;;;6489062;46;8910;-64
2023/10/24 21:28:41;;;;;;;;;34.00;31.00;;;;;;;;6488700;46;8838;-66
2023/10/24 21:34:43;;;;;;;;;30.67;28.00;;;;;;;;6489525;39;8922;-65
2023/10/24 21:40:52;;;;;;;;;32.33;31.00;;;;;;;;6487546;31;8972;-63
2023/10/24 21:46:57;;;;;;;;;25.33;24.67;;;;;;;;6488623;46;8875;-64
2023/10/24 21:53:00;;;;;;;;;30.00;26.67;;;;;;;;6488886;46;8901;-65
2023/10/24 21:59:02;;;;;;;;;31.33;28.33;;;;;;;;6488288;31;9654;-63
2023/10/24 22:05:05;;;;;;;;;26.67;24.33;;;;;;;;6488792;46;8949;-64
2023/10/24 22:11:08;;;;;;;;;29.00;26.00;;;;;;;;6488373;47;9132;-63
2023/10/24 22:17:13;;;;;;;;;34.33;28.67;;;;;;;;6488786;39;8902;-64
2023/10/24 22:23:15;;;;;;;;;26.67;25.00;;;;;;;;6488503;39;8981;-63
2023/10/24 22:29:17;;;;;;;;;27.00;24.67;;;;;;;;6488658;39;8932;-64
2023/10/24 22:35:20;;;;;;;;;34.00;28.67;;;;;;;;6489367;31;8975;-65
2023/10/24 22:41:24;;;;;;;;;36.33;33.33;;;;;;;;6488241;31;8914;-65
2023/10/24 22:47:30;;;;;;;;;38.33;33.00;;;;;;;;6487758;47;8891;-64
2023/10/24 22:53:36;;;;;;;;;38.00;36.00;;;;;;;;6489013;47;8870;-64
2023/10/24 22:59:38;;;;;;;;;44.00;37.67;;;;;;;;6487914;39;8974;-64
2023/10/24 23:05:42;;;;;;;;;44.00;36.33;;;;;;;;6489070;31;8899;-64
2023/10/24 23:11:46;;;;;;;;;50.33;41.33;;;;;;;;6488863;39;8856;-64
2023/10/24 23:17:48;;;;;;;;;53.00;43.25;;;;;;;;6487026;31;8910;-64
2023/10/24 23:23:52;;;;;;;;;51.00;43.75;;;;;;;;6488428;46;8884;-63
2023/10/24 23:29:54;;;;;;;;;61.25;48.25;;;;;;;;6488521;46;8871;-65
2023/10/24 23:35:57;;;;;;;;;60.00;47.50;;;;;;;;6490499;39;8979;-64
2023/10/24 23:42:02;;;;;;;;;55.50;42.00;;;;;;;;6490763;31;8890;-64
2023/10/24 23:48:07;;;;;;;;;55.50;46.50;;;;;;;;6490142;39;8938;-65
2023/10/24 23:54:10;;;;;;;;;49.75;40.00;;;;;;;;6490460;39;8843;-66
